createdAt,value
2023-04-12T00:00:21.291Z,4.74
2023-04-12T00:02:54.423Z,4.43
2023-04-12T00:05:27.465Z,4.57
2023-04-12T00:07:56.426Z,4.60
2023-04-12T00:10:26.204Z,4.66
2023-04-12T00:12:54.963Z,4.73
2023-04-12T00:15:23.712Z,4.78
2023-04-12T00:17:52.486Z,4.42
2023-04-12T00:20:21.338Z,4.35
2023-04-12T00:22:52.085Z,4.26
2023-04-12T00:25:21.067Z,4.07
2023-04-12T00:27:49.883Z,4.14
2023-04-12T00:30:18.750Z,4.27
2023-04-12T00:32:47.521Z,4.23
2023-04-12T00:35:16.209Z,4.19
2023-04-12T00:38:12.650Z,4.03
2023-04-12T00:40:43.793Z,4.07
2023-04-12T00:43:15.640Z,4.12
2023-04-12T00:45:44.895Z,4.12
2023-04-12T00:48:13.940Z,4.14
2023-04-12T00:50:44.825Z,4.21
2023-04-12T00:53:17.772Z,4.16
2023-04-12T00:55:47.667Z,3.68
2023-04-12T00:58:16.605Z,3.63
2023-04-12T01:00:50.431Z,3.48
2023-04-12T01:03:23.178Z,3.40
2023-04-12T01:06:10.656Z,3.39
2023-04-12T01:08:55.253Z,3.63
2023-04-12T01:11:33.858Z,3.81
2023-04-12T01:14:12.794Z,3.93
2023-04-12T01:16:51.216Z,3.98
2023-04-12T01:19:57.862Z,4.04
2023-04-12T01:23:00.815Z,3.63
2023-04-12T01:25:46.011Z,3.78
2023-04-12T01:28:23.835Z,3.50
2023-04-12T01:30:53.829Z,3.45
2023-04-12T01:33:31.352Z,3.50
2023-04-12T01:36:04.493Z,3.70
2023-04-12T01:38:36.189Z,3.66
2023-04-12T01:41:08.531Z,3.61
2023-04-12T01:43:44.044Z,3.54
2023-04-12T01:46:15.075Z,3.56
2023-04-12T01:48:51.335Z,3.62
2023-04-12T01:51:33.033Z,3.68
2023-04-12T01:54:11.734Z,3.47
2023-04-12T01:56:44.982Z,3.29
2023-04-12T01:59:18.703Z,3.32
2023-04-12T02:01:49.012Z,3.11
2023-04-12T02:04:19.769Z,3.34
2023-04-12T02:06:49.861Z,3.44
2023-04-12T02:09:18.559Z,3.35
2023-04-12T02:11:49.847Z,3.32
2023-04-12T02:14:20.385Z,3.45
2023-04-12T02:16:50.841Z,3.56
2023-04-12T02:19:20.338Z,3.55
2023-04-12T02:21:50.010Z,3.47
2023-04-12T02:24:18.985Z,3.20
2023-04-12T02:26:49.801Z,3.34
2023-04-12T02:29:19.951Z,3.23
2023-04-12T02:31:50.075Z,3.30
2023-04-12T02:34:19.510Z,3.29
2023-04-12T02:36:53.854Z,3.44
2023-04-12T02:39:23.509Z,3.47
2023-04-12T02:41:54.131Z,3.41
2023-04-12T02:44:24.490Z,3.23
2023-04-12T02:47:12.401Z,3.12
2023-04-12T02:49:43.539Z,3.21
2023-04-12T02:52:15.137Z,3.29
2023-04-12T02:54:59.566Z,3.34
2023-04-12T02:57:28.896Z,3.43
2023-04-12T03:00:00.211Z,3.43
2023-04-12T03:02:41.389Z,3.24
2023-04-12T03:05:17.750Z,3.29
2023-04-12T03:07:47.355Z,3.25
2023-04-12T03:10:18.781Z,3.23
2023-04-12T03:12:54.656Z,3.31
2023-04-12T03:15:24.944Z,3.23
2023-04-12T03:17:55.015Z,3.21
2023-04-12T03:20:29.880Z,3.20
2023-04-12T03:23:11.582Z,3.12
2023-04-12T03:25:46.773Z,3.24
2023-04-12T03:28:33.899Z,3.30
2023-04-12T03:31:07.319Z,3.25
2023-04-12T03:33:41.914Z,3.03
2023-04-12T03:36:21.730Z,2.95
2023-04-12T03:38:55.950Z,2.92
2023-04-12T03:41:25.209Z,2.84
2023-04-12T03:43:56.244Z,3.04
2023-04-12T03:46:26.847Z,2.97
2023-04-12T03:48:59.505Z,2.95
2023-04-12T03:51:30.769Z,3.03
2023-04-12T03:54:06.071Z,3.01
2023-04-12T03:56:46.358Z,2.93
2023-04-12T03:59:23.861Z,2.80
2023-04-12T04:02:38.580Z,2.67
2023-04-12T04:11:23.393Z,2.78
2023-04-12T04:14:02.332Z,2.78
2023-04-12T04:16:31.789Z,2.57
2023-04-12T04:19:04.270Z,2.38
2023-04-12T04:21:33.110Z,2.49
2023-04-12T04:24:04.237Z,2.57
2023-04-12T04:26:38.381Z,2.69
2023-04-12T04:29:18.404Z,2.78
2023-04-12T04:31:47.515Z,2.69
2023-04-12T04:34:19.793Z,2.61
2023-04-12T04:36:50.594Z,2.69
2023-04-12T04:39:27.480Z,2.82
2023-04-12T04:41:58.191Z,2.84
2023-04-12T04:44:40.475Z,2.53
2023-04-12T04:47:12.001Z,2.51
2023-04-12T04:49:43.394Z,2.59
2023-04-12T04:52:24.063Z,2.78
2023-04-12T04:54:57.907Z,2.84
2023-04-12T04:57:32.335Z,2.87
2023-04-12T05:00:11.125Z,2.78
2023-04-12T05:02:43.839Z,2.89
2023-04-12T05:05:23.516Z,2.93
2023-04-12T05:07:58.323Z,2.87
2023-04-12T05:10:30.611Z,2.81
2023-04-12T05:13:03.455Z,2.74
2023-04-12T05:15:33.608Z,2.82
2023-04-12T05:18:02.442Z,2.83
2023-04-12T05:20:33.721Z,2.84
2023-04-12T05:23:03.070Z,2.77
2023-04-12T05:25:33.187Z,2.93
2023-04-12T05:28:14.260Z,3.10
2023-04-12T05:30:44.069Z,3.23
2023-04-12T05:33:16.849Z,3.31
2023-04-12T05:35:49.728Z,3.39
2023-04-12T05:38:21.684Z,3.31
2023-04-12T05:40:55.420Z,3.38
2023-04-12T05:43:28.993Z,3.38
2023-04-12T05:46:00.828Z,3.36
2023-04-12T05:48:32.733Z,3.54
2023-04-12T05:51:06.249Z,3.63
2023-04-12T05:53:35.685Z,3.70
2023-04-12T05:56:08.068Z,3.80
2023-04-12T05:58:55.362Z,3.78
2023-04-12T06:01:32.346Z,3.79
2023-04-12T06:04:06.344Z,3.81
2023-04-12T06:06:36.966Z,3.82
2023-04-12T06:09:06.129Z,3.62
2023-04-12T06:11:34.962Z,3.73
2023-04-12T06:14:04.504Z,3.60
2023-04-12T06:16:33.545Z,3.76
2023-04-12T06:19:02.519Z,3.78
2023-04-12T06:21:31.340Z,3.99
2023-04-12T06:24:01.585Z,4.02
2023-04-12T06:26:39.028Z,4.17
2023-04-12T06:29:09.234Z,4.26
2023-04-12T06:31:38.584Z,4.28
2023-04-12T06:34:08.898Z,4.51
2023-04-12T06:36:41.592Z,4.45
2023-04-12T06:39:12.225Z,4.67
2023-04-12T06:41:43.616Z,4.79
2023-04-12T06:44:12.381Z,4.93
2023-04-12T06:46:41.251Z,5.12
2023-04-12T06:49:10.042Z,5.25
2023-04-12T06:51:39.032Z,5.42
2023-04-12T06:54:11.308Z,5.48
2023-04-12T06:56:41.112Z,5.55
2023-04-12T06:59:10.274Z,5.73
2023-04-12T07:01:40.395Z,5.87
2023-04-12T07:04:10.209Z,5.99
2023-04-12T07:06:39.139Z,6.17
2023-04-12T07:09:07.930Z,6.33
2023-04-12T07:11:38.094Z,6.52
2023-04-12T07:14:06.881Z,6.64
2023-04-12T07:16:35.669Z,6.76
2023-04-12T07:19:04.426Z,6.89
2023-04-12T07:21:33.207Z,7.00
2023-04-12T07:24:01.998Z,7.09
2023-04-12T07:26:31.457Z,7.25
2023-04-12T07:29:01.765Z,7.36
2023-04-12T07:31:31.599Z,7.46
2023-04-12T07:34:00.508Z,7.55
2023-04-12T07:36:29.287Z,7.70
2023-04-12T07:38:58.338Z,7.79
2023-04-12T07:41:27.218Z,7.89
2023-04-12T07:43:56.012Z,8.02
2023-04-12T07:46:26.320Z,8.14
2023-04-12T07:48:55.339Z,8.24
2023-04-12T07:51:24.296Z,8.38
2023-04-12T07:53:53.090Z,8.51
2023-04-12T07:56:21.885Z,8.61
2023-04-12T07:58:50.886Z,8.66
2023-04-12T08:01:19.656Z,8.80
2023-04-12T08:03:50.234Z,8.88
2023-04-12T08:06:19.121Z,8.96
2023-04-12T08:08:47.940Z,9.06
2023-04-12T08:11:16.762Z,9.14
2023-04-12T08:13:45.529Z,9.27
2023-04-12T08:16:14.285Z,9.36
2023-04-12T08:18:43.051Z,9.49
2023-04-12T08:21:13.203Z,9.62
2023-04-12T08:23:42.036Z,9.75
2023-04-12T08:26:11.079Z,9.93
2023-04-12T08:28:40.032Z,9.96
2023-04-12T08:31:09.499Z,10.08
2023-04-12T08:33:38.313Z,10.26
2023-04-12T08:36:08.420Z,10.22
2023-04-12T08:38:45.518Z,10.36
2023-04-12T08:41:15.559Z,10.39
2023-04-12T08:43:47.573Z,10.52
2023-04-12T08:46:18.369Z,10.55
2023-04-12T08:48:49.981Z,10.65
2023-04-12T08:51:21.330Z,10.64
2023-04-12T08:53:54.152Z,10.84
2023-04-12T08:56:25.161Z,10.98
2023-04-12T08:58:55.121Z,11.19
2023-04-12T09:01:23.951Z,11.36
2023-04-12T09:03:52.863Z,11.47
2023-04-12T09:06:22.051Z,11.45
2023-04-12T09:08:55.647Z,11.43
2023-04-12T09:11:27.211Z,11.36
2023-04-12T09:13:59.852Z,11.55
2023-04-12T09:16:37.846Z,11.71
2023-04-12T09:19:06.842Z,11.95
2023-04-12T09:21:37.129Z,12.13
2023-04-12T09:24:13.965Z,12.25
2023-04-12T09:26:43.807Z,12.38
2023-04-12T09:29:26.319Z,12.59
2023-04-12T09:32:02.653Z,12.63
2023-04-12T09:34:35.120Z,12.77
2023-04-12T09:37:14.891Z,12.96
2023-04-12T09:39:45.500Z,12.95
2023-04-12T09:42:32.391Z,12.81
2023-04-12T09:45:19.613Z,12.83
2023-04-12T09:47:48.917Z,12.73
2023-04-12T09:50:23.481Z,12.71
2023-04-12T09:52:52.761Z,12.82
2023-04-12T09:55:25.552Z,12.84
2023-04-12T09:57:56.637Z,12.93
2023-04-12T10:00:27.317Z,13.11
2023-04-12T10:02:58.029Z,13.33
2023-04-12T10:05:28.138Z,13.30
2023-04-12T10:08:02.089Z,13.54
2023-04-12T10:10:34.091Z,13.79
2023-04-12T10:13:03.560Z,14.04
2023-04-12T10:15:36.197Z,14.22
2023-04-12T10:18:11.499Z,14.46
2023-04-12T10:20:42.781Z,14.83
2023-04-12T10:23:16.422Z,14.88
2023-04-12T10:25:49.569Z,14.95
2023-04-12T10:28:21.815Z,15.33
2023-04-12T10:30:53.387Z,15.62
2023-04-12T10:33:28.162Z,15.74
2023-04-12T10:36:03.094Z,15.85
2023-04-12T10:38:45.878Z,15.94
2023-04-12T10:41:19.003Z,15.91
2023-04-12T10:43:48.725Z,16.10
2023-04-12T10:46:51.788Z,16.45
2023-04-12T10:49:21.169Z,16.51
2023-04-12T10:52:20.012Z,16.18
2023-04-12T10:54:48.864Z,15.92
2023-04-12T10:57:47.356Z,15.96
2023-04-12T11:00:17.767Z,16.10
2023-04-12T11:03:12.659Z,16.23
2023-04-12T11:06:20.033Z,16.04
2023-04-12T11:09:27.365Z,16.18
2023-04-12T11:12:13.668Z,16.58
2023-04-12T11:14:48.327Z,17.09
2023-04-12T11:17:26.120Z,17.67
2023-04-12T11:20:01.889Z,18.09
2023-04-12T11:22:33.863Z,18.44
2023-04-12T11:25:04.962Z,18.44
2023-04-12T11:27:34.611Z,18.68
2023-04-12T11:30:05.438Z,18.95
2023-04-12T11:32:41.536Z,18.79
2023-04-12T11:35:11.066Z,18.56
2023-04-12T11:37:40.779Z,18.52
2023-04-12T11:40:11.937Z,18.68
2023-04-12T11:42:42.087Z,18.91
2023-04-12T11:45:17.860Z,18.89
2023-04-12T11:47:48.229Z,19.00
2023-04-12T11:50:31.375Z,18.75
2023-04-12T11:53:13.218Z,18.89
2023-04-12T11:55:42.559Z,18.65
2023-04-12T11:58:11.333Z,18.72
2023-04-12T12:00:45.040Z,18.76
2023-04-12T12:03:14.418Z,19.06
2023-04-12T12:05:44.616Z,19.06
2023-04-12T12:08:14.692Z,19.22
2023-04-12T12:10:59.733Z,19.31
2023-04-12T12:13:46.996Z,18.85
2023-04-12T12:16:18.808Z,18.94
2023-04-12T12:18:52.541Z,19.17
2023-04-12T12:21:22.077Z,19.33
2023-04-12T12:23:51.531Z,19.25
2023-04-12T12:26:26.005Z,18.81
2023-04-12T12:28:57.410Z,18.93
2023-04-12T12:31:29.356Z,19.25
2023-04-12T12:34:01.122Z,19.21
2023-04-12T12:36:34.645Z,19.20
2023-04-12T12:39:10.680Z,19.16
2023-04-12T12:41:40.766Z,18.92
2023-04-12T12:44:11.408Z,18.55
2023-04-12T12:49:16.000Z,18.33
2023-04-12T12:51:45.741Z,18.27
2023-04-12T12:54:25.044Z,18.13
2023-04-12T12:57:05.951Z,17.93
2023-04-12T12:59:35.188Z,17.71
2023-04-12T13:02:07.908Z,17.70
2023-04-12T13:04:37.096Z,17.65
2023-04-12T13:07:06.076Z,17.30
2023-04-12T13:09:36.099Z,17.24
2023-04-12T13:12:05.428Z,17.11
2023-04-12T13:14:34.523Z,17.05
2023-04-12T13:17:08.923Z,17.11
2023-04-12T13:19:37.618Z,17.14
2023-04-12T13:22:07.429Z,16.87
2023-04-12T13:24:37.475Z,16.67
2023-04-12T13:27:06.426Z,16.66
2023-04-12T13:29:35.676Z,16.57
2023-04-12T13:32:04.958Z,16.52
2023-04-12T13:34:35.439Z,16.33
2023-04-12T13:37:04.251Z,16.21
2023-04-12T13:39:34.574Z,16.18
2023-04-12T13:42:05.773Z,16.19
2023-04-12T13:44:34.566Z,16.12
2023-04-12T13:47:03.501Z,15.95
2023-04-12T13:49:32.464Z,15.94
2023-04-12T13:52:04.572Z,15.86
2023-04-12T13:54:33.456Z,15.83
2023-04-12T13:57:04.151Z,15.84
2023-04-12T13:59:33.139Z,15.86
2023-04-12T14:02:02.976Z,15.78
2023-04-12T14:04:33.127Z,15.73
2023-04-12T14:07:03.397Z,15.68
2023-04-12T14:09:33.982Z,15.60
2023-04-12T14:12:03.058Z,15.62
2023-04-12T14:14:31.749Z,15.52
2023-04-12T14:17:02.107Z,15.31
2023-04-12T14:19:34.948Z,15.18
2023-04-12T14:22:05.336Z,15.21
2023-04-12T14:24:40.385Z,15.11
2023-04-12T14:27:15.377Z,14.87
2023-04-12T14:29:46.298Z,14.90
2023-04-12T14:32:16.285Z,14.70
2023-04-12T14:34:46.541Z,14.66
2023-04-12T14:37:16.850Z,14.66
2023-04-12T14:39:51.739Z,14.67
2023-04-12T14:42:26.206Z,14.57
2023-04-12T14:44:57.521Z,14.57
2023-04-12T14:47:27.914Z,14.57
2023-04-12T14:49:57.177Z,14.55
2023-04-12T14:52:32.533Z,14.46
2023-04-12T14:55:02.085Z,14.39
2023-04-12T14:57:30.916Z,14.32
2023-04-12T15:00:00.391Z,14.22
2023-04-12T15:02:29.708Z,14.19
2023-04-12T15:05:05.129Z,14.23
2023-04-12T15:07:37.117Z,14.30
2023-04-12T15:10:14.217Z,14.31
2023-04-12T15:12:43.495Z,14.37
2023-04-12T15:15:14.421Z,14.19
2023-04-12T15:17:48.956Z,14.18
2023-04-12T15:20:33.910Z,14.06
2023-04-12T15:23:13.435Z,14.13
2023-04-12T15:25:42.780Z,13.88
2023-04-12T15:28:12.103Z,13.90
2023-04-12T15:30:41.974Z,13.86
2023-04-12T15:33:13.010Z,13.85
2023-04-12T15:35:43.186Z,13.76
2023-04-12T15:38:15.591Z,13.75
2023-04-12T15:40:48.045Z,13.62
2023-04-12T15:43:16.955Z,13.57
2023-04-12T15:45:45.859Z,13.52
2023-04-12T15:48:21.009Z,13.51
2023-04-12T15:51:03.946Z,13.46
2023-04-12T15:54:00.174Z,13.47
2023-04-12T15:56:31.502Z,13.32
2023-04-12T15:59:01.246Z,13.29
2023-04-12T16:01:31.535Z,13.23
2023-04-12T16:04:00.633Z,13.02
2023-04-12T16:06:34.766Z,12.97
2023-04-12T16:09:06.853Z,12.88
2023-04-12T16:11:35.774Z,12.87
2023-04-12T16:14:04.543Z,12.75
2023-04-12T16:16:33.721Z,12.81
2023-04-12T16:19:02.843Z,12.92
2023-04-12T16:21:31.641Z,12.92
2023-04-12T16:24:00.856Z,13.01
2023-04-12T16:26:32.389Z,13.02
2023-04-12T16:29:02.142Z,13.09
2023-04-12T16:31:32.021Z,13.11
2023-04-12T16:34:01.346Z,13.03
2023-04-12T16:36:31.490Z,13.01
2023-04-12T16:39:03.539Z,13.00
2023-04-12T16:41:42.733Z,12.96
2023-04-12T16:44:42.854Z,12.81
2023-04-12T16:47:11.796Z,12.88
2023-04-12T16:51:01.390Z,12.85
2023-04-12T16:53:30.475Z,12.76
2023-04-12T16:56:09.989Z,12.69
2023-04-12T16:58:41.676Z,12.70
2023-04-12T17:01:19.367Z,12.76
2023-04-12T17:03:49.582Z,12.75
2023-04-12T17:06:19.588Z,12.77
2023-04-12T17:08:50.373Z,12.77
2023-04-12T17:11:19.302Z,12.82
2023-04-12T17:13:52.651Z,12.74
2023-04-12T17:16:22.563Z,12.83
2023-04-12T17:18:51.431Z,12.88
2023-04-12T17:21:22.553Z,12.95
2023-04-12T17:23:53.585Z,12.92
2023-04-12T17:26:26.463Z,12.91
2023-04-12T17:28:58.800Z,12.84
2023-04-12T17:31:29.015Z,12.77
2023-04-12T17:33:58.214Z,12.83
2023-04-12T17:36:32.671Z,12.88
2023-04-12T17:39:04.847Z,12.91
2023-04-12T17:41:33.782Z,12.83
2023-04-12T17:44:04.056Z,12.86
2023-04-12T17:46:34.840Z,12.79
2023-04-12T17:49:05.792Z,12.65
2023-04-12T17:51:35.310Z,12.73
2023-04-12T17:54:07.964Z,12.78
2023-04-12T17:56:37.020Z,12.76
2023-04-12T17:59:11.460Z,12.76
2023-04-12T18:01:41.922Z,12.75
2023-04-12T18:04:11.306Z,12.69
2023-04-12T18:06:42.029Z,12.66
2023-04-12T18:09:12.733Z,12.60
2023-04-12T18:11:43.455Z,12.60
2023-04-12T18:14:16.085Z,12.49
2023-04-12T18:16:45.996Z,12.50
2023-04-12T18:19:19.141Z,12.42
2023-04-12T18:21:49.551Z,12.25
2023-04-12T18:24:18.516Z,12.29
2023-04-12T18:26:49.601Z,12.20
2023-04-12T18:29:25.479Z,12.14
2023-04-12T18:32:16.448Z,12.08
2023-04-12T18:34:45.759Z,12.02
2023-04-12T18:37:14.668Z,11.91
2023-04-12T18:39:43.469Z,11.75
2023-04-12T18:42:17.337Z,11.81
2023-04-12T18:44:48.506Z,11.79
2023-04-12T18:47:17.749Z,11.64
2023-04-12T18:50:14.129Z,11.68
2023-04-12T18:52:42.997Z,11.71
2023-04-12T18:55:12.617Z,11.68
2023-04-12T18:57:41.564Z,11.62
2023-04-12T19:00:14.711Z,11.60
2023-04-12T19:02:43.887Z,11.51
2023-04-12T19:05:15.066Z,11.48
2023-04-12T19:07:45.012Z,11.44
2023-04-12T19:10:17.657Z,11.38
2023-04-12T19:12:47.755Z,11.41
2023-04-12T19:15:17.968Z,11.33
2023-04-12T19:17:49.510Z,11.36
2023-04-12T19:20:20.051Z,11.30
2023-04-12T19:22:54.905Z,11.39
2023-04-12T19:25:29.823Z,11.36
2023-04-12T19:28:26.937Z,11.36
2023-04-12T19:31:12.309Z,11.45
2023-04-12T19:33:42.661Z,11.50
2023-04-12T19:36:12.348Z,11.48
2023-04-12T19:38:44.392Z,11.41
2023-04-12T19:41:14.280Z,11.32
2023-04-12T19:43:44.181Z,11.30
2023-04-12T19:46:21.858Z,11.32
2023-04-12T19:48:54.912Z,11.36
2023-04-12T19:51:27.585Z,11.34
2023-04-12T19:53:59.529Z,11.40
2023-04-12T19:56:30.053Z,11.42
2023-04-12T19:59:00.477Z,11.41
2023-04-12T20:01:31.841Z,11.42
2023-04-12T20:04:06.003Z,11.42
2023-04-12T20:06:35.699Z,11.20
2023-04-12T20:09:08.265Z,11.23
2023-04-12T20:11:38.380Z,11.28
2023-04-12T20:14:09.857Z,11.29
2023-04-12T20:16:43.986Z,11.32
2023-04-12T20:19:13.582Z,11.35
2023-04-12T20:21:44.351Z,11.21
2023-04-12T20:24:13.827Z,11.18
2023-04-12T20:26:46.779Z,11.20
2023-04-12T20:29:17.808Z,11.24
2023-04-12T20:31:48.336Z,11.20
2023-04-12T20:34:17.758Z,11.17
2023-04-12T20:36:46.715Z,11.17
2023-04-12T20:39:15.421Z,11.24
2023-04-12T20:41:50.070Z,11.22
2023-04-12T20:44:20.586Z,11.25
2023-04-12T20:46:51.162Z,11.30
2023-04-12T20:49:20.673Z,11.33
2023-04-12T20:51:50.033Z,11.38
2023-04-12T20:54:19.907Z,11.29
2023-04-12T20:56:48.699Z,11.33
2023-04-12T20:59:17.589Z,11.34
2023-04-12T21:01:49.897Z,11.40
2023-04-12T21:04:20.270Z,11.35
2023-04-12T21:06:50.620Z,11.38
2023-04-12T21:09:19.491Z,11.42
2023-04-12T21:11:49.134Z,11.46
2023-04-12T21:14:18.272Z,11.36
2023-04-12T21:16:48.977Z,11.43
2023-04-12T21:19:19.739Z,11.41
2023-04-12T21:21:50.825Z,11.46
2023-04-12T21:24:20.274Z,11.41
2023-04-12T21:26:57.729Z,11.41
2023-04-12T21:29:26.952Z,11.39
2023-04-12T21:31:56.398Z,11.45
2023-04-12T21:34:26.854Z,11.43
2023-04-12T21:36:57.503Z,11.47
2023-04-12T21:39:27.201Z,11.45
2023-04-12T21:41:58.160Z,11.39
2023-04-12T21:44:27.447Z,11.45
2023-04-12T21:46:56.847Z,11.40
2023-04-12T21:49:30.226Z,11.44
2023-04-12T21:51:59.556Z,11.44
2023-04-12T21:54:31.447Z,11.46
2023-04-12T21:57:03.765Z,11.41
2023-04-12T21:59:33.299Z,11.39
2023-04-12T22:02:02.272Z,11.41
2023-04-12T22:04:33.134Z,11.31
2023-04-12T22:07:05.428Z,11.36
2023-04-12T22:09:36.015Z,11.18
2023-04-12T22:12:06.674Z,11.17
2023-04-12T22:14:36.682Z,11.14
2023-04-12T22:17:06.910Z,11.18
2023-04-12T22:19:37.571Z,11.14
2023-04-12T22:22:08.493Z,11.17
2023-04-12T22:24:38.820Z,11.22
2023-04-12T22:27:09.438Z,11.10
2023-04-12T22:29:38.960Z,11.10
2023-04-12T22:32:09.686Z,11.14
2023-04-12T22:34:40.504Z,11.11
2023-04-12T22:37:09.789Z,11.12
2023-04-12T22:39:40.298Z,11.08
2023-04-12T22:42:09.779Z,11.00
2023-04-12T22:44:39.373Z,10.85
2023-04-12T22:47:09.083Z,10.86
2023-04-12T22:49:50.582Z,10.88
2023-04-12T22:52:20.134Z,10.86
2023-04-12T22:54:50.091Z,10.93
2023-04-12T22:57:21.463Z,10.93
2023-04-12T22:59:50.512Z,10.97
2023-04-12T23:02:19.880Z,10.87
2023-04-12T23:04:50.571Z,10.95
2023-04-12T23:07:19.851Z,10.80
2023-04-12T23:09:52.808Z,10.82
2023-04-12T23:12:22.808Z,10.92
2023-04-12T23:14:55.720Z,10.90
2023-04-12T23:17:26.902Z,10.88
2023-04-12T23:19:58.316Z,10.88
2023-04-12T23:22:55.802Z,10.81
2023-04-12T23:25:38.134Z,10.84
2023-04-12T23:28:12.947Z,10.85
2023-04-12T23:30:47.954Z,10.84
2023-04-12T23:33:22.629Z,10.90
2023-04-12T23:35:56.052Z,10.88
2023-04-12T23:38:27.330Z,10.79
2023-04-12T23:40:56.628Z,10.71
2023-04-12T23:43:26.941Z,10.69
2023-04-12T23:45:57.329Z,10.69
2023-04-12T23:48:27.196Z,10.76
2023-04-12T23:50:57.386Z,10.82
2023-04-12T23:53:26.697Z,10.88
2023-04-12T23:55:55.663Z,10.90
2023-04-12T23:58:25.550Z,10.88
